createdAt,value
2019-04-25T08:06:29.312Z,62.58
2019-04-25T08:06:57.046Z,62.68
2019-04-25T08:07:29.647Z,63.23
2019-04-25T08:07:57.042Z,63.50
2019-04-25T08:08:29.755Z,63.32
2019-04-25T08:08:57.038Z,63.11
2019-04-25T08:09:29.507Z,62.91
2019-04-25T08:09:58.052Z,62.73
2019-04-25T08:10:28.104Z,63.34
2019-04-25T08:11:00.035Z,63.15
2019-04-25T08:11:29.866Z,62.39
2019-04-25T08:11:57.043Z,61.83
2019-04-25T08:12:29.110Z,62.55
2019-04-25T08:12:57.038Z,60.76
2019-04-25T08:13:28.752Z,60.75
2019-04-25T08:13:57.042Z,60.84
2019-04-25T08:14:30.096Z,60.67
2019-04-25T08:14:57.042Z,60.33
2019-04-25T08:15:29.956Z,60.88
2019-04-25T08:15:57.050Z,61.25
2019-04-25T08:16:27.116Z,61.75
2019-04-25T08:16:57.042Z,62.15
2019-04-25T08:17:27.124Z,61.67
2019-04-25T08:17:57.046Z,60.93
2019-04-25T08:18:28.583Z,61.56
2019-04-25T08:18:57.051Z,60.92
2019-04-25T08:19:27.108Z,60.08
2019-04-25T08:19:57.043Z,61.17
2019-04-25T08:20:28.416Z,60.99
2019-04-25T08:20:57.046Z,62.13
2019-04-25T08:21:30.652Z,61.97
2019-04-25T08:21:57.052Z,62.25
2019-04-25T08:22:27.117Z,62.99
2019-04-25T08:22:59.147Z,62.70
2019-04-25T08:23:27.110Z,62.43
2019-04-25T08:23:57.048Z,62.35
2019-04-25T08:24:27.108Z,62.11
2019-04-25T08:24:57.079Z,62.14
2019-04-25T08:25:27.110Z,62.10
2019-04-25T08:25:57.040Z,60.73
2019-04-25T08:26:27.125Z,60.79
2019-04-25T08:26:57.042Z,61.71
2019-04-25T08:27:27.104Z,62.94
2019-04-25T08:27:57.044Z,62.67
2019-04-25T08:28:27.104Z,61.72
2019-04-25T08:28:58.060Z,60.32
2019-04-25T08:29:27.109Z,59.60
2019-04-25T08:29:57.048Z,59.15
2019-04-25T08:30:27.104Z,59.65
2019-04-25T08:30:58.246Z,58.91
2019-04-25T08:31:27.106Z,59.36
2019-04-25T08:32:00.073Z,61.32
2019-04-25T08:32:27.110Z,61.29
2019-04-25T08:32:57.054Z,60.76
2019-04-25T08:33:27.109Z,60.97
2019-04-25T08:33:57.042Z,60.67
2019-04-25T08:34:27.113Z,60.98
2019-04-25T08:34:57.056Z,59.74
2019-04-25T08:35:27.111Z,60.29
2019-04-25T08:36:06.424Z,60.73
2019-04-25T08:36:27.111Z,60.24
2019-04-25T08:36:57.179Z,60.00
2019-04-25T08:37:27.119Z,58.23
2019-04-25T08:37:57.046Z,57.59
2019-04-25T08:38:27.112Z,58.41
2019-04-25T08:38:57.053Z,58.30
2019-04-25T08:39:27.109Z,57.92
2019-04-25T08:39:57.049Z,57.82
2019-04-25T08:40:27.153Z,57.99
2019-04-25T08:40:57.053Z,56.98
2019-04-25T08:41:28.207Z,57.08
2019-04-25T08:41:57.042Z,57.72
2019-04-25T08:42:30.110Z,58.19
2019-04-25T08:42:57.048Z,58.41
2019-04-25T08:43:27.112Z,58.41
2019-04-25T08:43:57.050Z,57.92
2019-04-25T08:44:27.109Z,58.01
2019-04-25T08:44:57.051Z,57.66
2019-04-25T08:45:27.120Z,57.60
2019-04-25T08:45:57.050Z,57.13
2019-04-25T08:46:27.155Z,57.20
2019-04-25T08:46:57.051Z,57.08
2019-04-25T08:47:27.110Z,56.72
2019-04-25T08:47:57.057Z,57.33
2019-04-25T08:48:27.120Z,58.09
2019-04-25T08:48:57.055Z,57.59
2019-04-25T08:49:27.110Z,57.31
2019-04-25T08:49:57.057Z,55.95
2019-04-25T08:50:31.516Z,56.12
2019-04-25T08:50:57.061Z,56.41
2019-04-25T08:51:27.117Z,56.64
2019-04-25T08:51:58.149Z,56.50
2019-04-25T08:52:27.163Z,56.40
2019-04-25T08:53:00.109Z,56.79
2019-04-25T08:53:27.164Z,57.42
2019-04-25T08:53:57.099Z,56.79
2019-04-25T08:54:27.181Z,56.62
2019-04-25T08:54:58.099Z,56.42
2019-04-25T08:55:27.165Z,55.86
2019-04-25T08:55:57.094Z,56.06
2019-04-25T08:56:27.153Z,55.59
2019-04-25T08:56:57.098Z,55.71
2019-04-25T08:57:27.156Z,56.13
2019-04-25T08:57:58.368Z,56.40
2019-04-25T08:58:27.163Z,56.00
2019-04-25T08:59:04.103Z,55.52
2019-04-25T08:59:35.159Z,55.48
2019-04-25T08:59:57.098Z,56.00
2019-04-25T09:00:27.167Z,55.71
2019-04-25T09:01:01.309Z,56.22
2019-04-25T09:01:27.158Z,55.50
2019-04-25T09:01:57.195Z,55.36
2019-04-25T09:02:28.164Z,55.53
2019-04-25T09:02:57.103Z,55.68
2019-04-25T09:03:30.155Z,55.26
2019-04-25T09:03:57.103Z,56.74
2019-04-25T09:04:27.171Z,56.01
2019-04-25T09:04:57.105Z,56.12
2019-04-25T09:05:27.178Z,56.64
2019-04-25T09:05:57.124Z,55.80
2019-04-25T09:06:27.162Z,55.29
2019-04-25T09:06:57.098Z,56.13
2019-04-25T09:07:27.172Z,57.21
2019-04-25T09:07:57.112Z,58.03
2019-04-25T09:08:27.164Z,58.43
2019-04-25T09:08:57.108Z,57.87
2019-04-25T09:09:27.166Z,57.95
2019-04-25T09:09:57.182Z,57.43
2019-04-25T09:10:27.244Z,57.46
2019-04-25T09:10:57.100Z,56.75
2019-04-25T09:11:27.170Z,56.25
2019-04-25T09:11:57.097Z,56.40
2019-04-25T09:12:27.156Z,57.54
2019-04-25T09:12:58.156Z,58.01
2019-04-25T09:13:27.157Z,58.23
2019-04-25T09:14:00.112Z,57.76
2019-04-25T09:14:27.158Z,57.47
2019-04-25T09:14:57.121Z,58.39
2019-04-25T09:15:27.164Z,58.02
2019-04-25T09:15:57.104Z,57.36
2019-04-25T09:16:27.163Z,56.26
2019-04-25T09:16:57.094Z,56.52
2019-04-25T09:17:27.176Z,56.85
2019-04-25T09:17:57.103Z,57.25
2019-04-25T09:18:27.158Z,57.02
2019-04-25T09:18:57.112Z,56.65
2019-04-25T09:19:27.185Z,57.31
2019-04-25T09:19:57.098Z,57.71
2019-04-25T09:20:27.170Z,57.66
2019-04-25T09:20:57.106Z,58.28
2019-04-25T09:21:27.172Z,58.89
2019-04-25T09:21:57.112Z,59.02
2019-04-25T09:22:27.165Z,58.92
2019-04-25T09:22:57.102Z,57.87
2019-04-25T09:23:28.191Z,58.53
2019-04-25T09:23:57.110Z,58.19
2019-04-25T09:24:30.165Z,58.90
2019-04-25T09:24:57.105Z,58.94
2019-04-25T09:25:27.187Z,60.63
2019-04-25T09:25:57.100Z,60.60
2019-04-25T09:26:27.174Z,60.85
2019-04-25T09:26:57.108Z,61.27
2019-04-25T09:27:27.172Z,60.40
2019-04-25T09:27:57.106Z,60.61
2019-04-25T09:28:27.168Z,60.21
2019-04-25T09:28:57.094Z,60.70
2019-04-25T09:29:27.162Z,60.67
2019-04-25T09:29:57.101Z,59.98
2019-04-25T09:30:27.161Z,60.11
2019-04-25T09:30:57.113Z,60.15
2019-04-25T09:31:27.168Z,60.19
2019-04-25T09:31:57.111Z,59.61
2019-04-25T09:32:27.159Z,59.66
2019-04-25T09:32:57.100Z,58.85
2019-04-25T09:33:27.177Z,58.96
2019-04-25T09:33:58.320Z,57.69
2019-04-25T09:34:27.164Z,59.19
2019-04-25T09:35:00.128Z,58.82
2019-04-25T09:35:27.273Z,56.99
2019-04-25T09:35:57.113Z,56.61
2019-04-25T09:36:27.167Z,56.67
2019-04-25T09:36:57.115Z,56.47
2019-04-25T09:37:27.170Z,56.19
2019-04-25T09:37:57.116Z,56.74
2019-04-25T09:38:27.183Z,56.59
2019-04-25T09:38:57.114Z,56.85
2019-04-25T09:39:27.166Z,56.71
2019-04-25T09:39:57.115Z,55.98
2019-04-25T09:40:28.413Z,56.36
2019-04-25T09:40:57.151Z,55.82
2019-04-25T09:41:27.165Z,55.80
2019-04-25T09:41:57.107Z,55.67
2019-04-25T09:42:27.177Z,55.47
2019-04-25T09:42:57.099Z,55.52
2019-04-25T09:43:27.161Z,54.47
2019-04-25T09:43:57.110Z,54.64
2019-04-25T09:44:28.178Z,54.35
2019-04-25T09:44:57.100Z,54.35
2019-04-25T09:45:30.106Z,54.42
2019-04-25T09:45:57.104Z,54.86
2019-04-25T09:46:27.175Z,55.24
2019-04-25T09:46:57.106Z,54.90
2019-04-25T09:47:27.167Z,54.40
2019-04-25T09:47:57.118Z,54.60
2019-04-25T09:48:27.168Z,54.73
2019-04-25T09:48:57.111Z,55.00
2019-04-25T09:49:27.173Z,54.35
2019-04-25T09:49:57.116Z,53.47
2019-04-25T09:50:27.168Z,54.17
2019-04-25T09:50:57.109Z,53.67
2019-04-25T09:51:27.177Z,54.21
2019-04-25T09:51:57.113Z,53.86
2019-04-25T09:52:27.182Z,54.34
2019-04-25T09:52:57.119Z,53.03
2019-04-25T09:53:27.165Z,53.05
2019-04-25T09:53:57.116Z,54.08
2019-04-25T09:54:27.169Z,54.05
2019-04-25T09:54:58.198Z,55.68
2019-04-25T09:55:27.183Z,56.12
2019-04-25T09:56:00.138Z,55.37
2019-04-25T09:56:27.195Z,54.29
2019-04-25T09:56:57.112Z,53.92
2019-04-25T09:57:27.179Z,53.91
2019-04-25T09:57:57.114Z,53.94
2019-04-25T09:58:27.189Z,53.50
2019-04-25T09:58:57.129Z,53.47
2019-04-25T09:59:30.037Z,55.11
2019-04-25T09:59:57.106Z,55.97
2019-04-25T10:00:27.175Z,55.34
2019-04-25T10:00:57.107Z,53.68
2019-04-25T10:01:28.497Z,52.66
2019-04-25T10:01:57.127Z,52.89
2019-04-25T10:02:27.315Z,52.12
2019-04-25T10:02:57.110Z,52.80
2019-04-25T10:03:27.173Z,53.09
2019-04-25T10:03:57.135Z,52.92
2019-04-25T10:04:27.240Z,52.31
2019-04-25T10:04:57.111Z,51.93
2019-04-25T10:05:28.197Z,51.45
2019-04-25T10:05:57.124Z,51.13
2019-04-25T10:06:30.165Z,50.43
2019-04-25T10:06:57.122Z,50.93
2019-04-25T10:07:27.179Z,51.27
2019-04-25T10:07:57.123Z,51.01
2019-04-25T10:08:27.178Z,51.69
2019-04-25T10:08:57.122Z,51.87
2019-04-25T10:09:27.171Z,52.07
2019-04-25T10:09:57.115Z,51.59
2019-04-25T10:10:27.180Z,50.81
2019-04-25T10:10:57.123Z,50.98
2019-04-25T10:11:27.179Z,50.40
2019-04-25T10:11:57.113Z,50.99
2019-04-25T10:12:27.180Z,50.91
2019-04-25T10:12:57.118Z,52.17
2019-04-25T10:13:27.182Z,51.54
2019-04-25T10:13:57.115Z,50.78
2019-04-25T10:14:27.182Z,51.51
2019-04-25T10:14:57.117Z,51.64
2019-04-25T10:15:27.173Z,51.20
2019-04-25T10:15:58.161Z,50.95
2019-04-25T10:16:27.183Z,52.17
2019-04-25T10:17:00.155Z,50.77
2019-04-25T10:17:27.185Z,50.84
2019-04-25T10:17:57.125Z,50.50
2019-04-25T10:18:27.168Z,50.47
2019-04-25T10:18:57.116Z,51.13
2019-04-25T10:19:27.179Z,50.92
2019-04-25T10:19:57.115Z,51.04
2019-04-25T10:20:27.187Z,53.34
2019-04-25T10:20:57.191Z,52.26
2019-04-25T10:21:27.182Z,51.17
2019-04-25T10:21:57.115Z,50.71
2019-04-25T10:22:27.185Z,50.56
2019-04-25T10:22:57.118Z,51.01
2019-04-25T10:23:27.183Z,52.18
2019-04-25T10:23:57.129Z,52.31
2019-04-25T10:24:27.175Z,52.13
2019-04-25T10:25:00.620Z,52.66
2019-04-25T10:25:27.199Z,52.68
2019-04-25T10:25:57.119Z,53.06
2019-04-25T10:26:28.240Z,53.21
2019-04-25T10:26:57.117Z,53.14
2019-04-25T10:27:30.278Z,52.56
2019-04-25T10:27:57.109Z,52.85
2019-04-25T10:28:27.187Z,54.05
2019-04-25T10:28:57.121Z,54.62
2019-04-25T10:29:39.289Z,55.30
2019-04-25T10:29:58.125Z,55.95
2019-04-25T10:30:27.178Z,54.21
2019-04-25T10:30:57.124Z,54.28
2019-04-25T10:31:27.197Z,54.70
2019-04-25T10:31:57.119Z,54.69
2019-04-25T10:32:27.189Z,54.68
2019-04-25T10:32:57.136Z,55.07
2019-04-25T10:33:27.177Z,54.51
2019-04-25T10:33:57.126Z,54.54
2019-04-25T10:34:27.193Z,54.28
2019-04-25T10:34:57.123Z,53.41
2019-04-25T10:35:27.212Z,54.06
2019-04-25T10:36:01.149Z,54.54
2019-04-25T10:36:27.181Z,52.39
2019-04-25T10:36:58.288Z,50.52
2019-04-25T10:37:27.195Z,51.67
2019-04-25T10:38:00.148Z,52.84
2019-04-25T10:38:27.191Z,52.66
2019-04-25T10:39:06.821Z,52.88
2019-04-25T10:39:27.199Z,52.14
2019-04-25T10:39:57.125Z,51.44
2019-04-25T10:40:27.182Z,53.11
2019-04-25T10:40:57.128Z,53.54
2019-04-25T10:41:27.184Z,54.37
2019-04-25T10:41:57.122Z,54.56
2019-04-25T10:42:27.196Z,54.44
2019-04-25T10:42:57.154Z,53.82
2019-04-25T10:43:27.182Z,53.58
2019-04-25T10:43:57.121Z,51.56
2019-04-25T10:44:27.190Z,51.34
2019-04-25T10:44:57.128Z,51.78
2019-04-25T10:45:27.189Z,51.94
2019-04-25T10:45:57.145Z,51.44
2019-04-25T10:46:27.196Z,51.13
2019-04-25T10:46:57.116Z,51.19
2019-04-25T10:47:28.528Z,52.13
2019-04-25T10:47:57.134Z,51.89
2019-04-25T10:48:30.103Z,51.21
2019-04-25T10:48:57.122Z,51.67
2019-04-25T10:49:27.190Z,51.12
2019-04-25T10:49:59.327Z,51.28
2019-04-25T10:50:27.205Z,50.78
2019-04-25T10:50:57.138Z,50.32
2019-04-25T10:51:27.189Z,50.68
2019-04-25T10:51:57.129Z,50.48
2019-04-25T10:52:27.184Z,51.09
2019-04-25T10:52:57.127Z,52.53
2019-04-25T10:53:27.186Z,51.49
2019-04-25T10:53:57.124Z,51.36
2019-04-25T10:54:27.188Z,51.92
2019-04-25T10:54:57.120Z,51.38
2019-04-25T10:55:27.202Z,51.07
2019-04-25T10:55:57.143Z,51.84
2019-04-25T10:56:27.190Z,51.28
2019-04-25T10:56:57.146Z,51.77
2019-04-25T10:57:27.202Z,51.39
2019-04-25T10:57:58.162Z,51.67
2019-04-25T10:58:27.229Z,51.70
2019-04-25T10:59:00.113Z,51.73
2019-04-25T10:59:27.191Z,51.23
2019-04-25T11:00:06.110Z,51.82
2019-04-25T11:00:27.189Z,51.32
2019-04-25T11:00:57.154Z,50.93
2019-04-25T11:01:27.183Z,49.99
2019-04-25T11:01:57.142Z,50.89
2019-04-25T11:02:27.201Z,51.60
2019-04-25T11:02:57.138Z,51.78
2019-04-25T11:03:27.195Z,51.42
2019-04-25T11:03:57.144Z,50.71
2019-04-25T11:04:27.192Z,50.03
2019-04-25T11:04:57.133Z,50.13
2019-04-25T11:05:27.195Z,50.78
2019-04-25T11:05:57.140Z,50.23
2019-04-25T11:06:27.192Z,50.80
2019-04-25T11:06:57.144Z,50.94
2019-04-25T11:07:27.217Z,51.11
2019-04-25T11:07:57.128Z,50.82
2019-04-25T11:08:28.202Z,50.79
2019-04-25T11:08:58.404Z,50.39
2019-04-25T11:09:30.112Z,50.71
2019-04-25T11:09:57.133Z,51.03
2019-04-25T11:10:27.192Z,50.02
2019-04-25T11:10:57.150Z,49.33
2019-04-25T11:11:27.198Z,49.80
2019-04-25T11:11:57.133Z,49.38
2019-04-25T11:12:27.196Z,49.19
2019-04-25T11:12:57.140Z,49.59
2019-04-25T11:13:27.222Z,49.05
2019-04-25T11:13:57.163Z,50.35
2019-04-25T11:14:27.198Z,49.43
2019-04-25T11:14:57.124Z,49.45
2019-04-25T11:15:27.206Z,48.98
2019-04-25T11:15:58.140Z,48.45
2019-04-25T11:16:27.195Z,47.67
2019-04-25T11:16:57.141Z,48.63
2019-04-25T11:17:27.190Z,49.04
2019-04-25T11:17:57.132Z,47.88
2019-04-25T11:18:27.205Z,47.58
2019-04-25T11:18:58.260Z,48.36
2019-04-25T11:19:27.190Z,49.83
2019-04-25T11:20:00.108Z,49.00
2019-04-25T11:20:27.196Z,48.64
2019-04-25T11:20:57.139Z,49.46
2019-04-25T11:21:27.193Z,49.47
2019-04-25T11:21:57.148Z,49.73
2019-04-25T11:22:27.200Z,49.92
2019-04-25T11:22:57.136Z,49.61
2019-04-25T11:23:27.199Z,49.50
2019-04-25T11:23:57.140Z,48.88
2019-04-25T11:24:27.202Z,48.16
2019-04-25T11:24:57.145Z,48.21
2019-04-25T11:25:27.193Z,48.70
2019-04-25T11:25:57.151Z,48.67
2019-04-25T11:26:27.199Z,47.35
2019-04-25T11:26:57.149Z,46.99
2019-04-25T11:27:27.201Z,46.90
2019-04-25T11:27:57.144Z,47.11
2019-04-25T11:28:27.214Z,46.76
2019-04-25T11:28:57.151Z,46.89
2019-04-25T11:29:28.232Z,46.96
2019-04-25T11:30:08.387Z,47.86
2019-04-25T11:30:30.519Z,48.40
2019-04-25T11:30:58.136Z,46.91
2019-04-25T11:31:27.199Z,45.99
2019-04-25T11:31:57.128Z,46.27
2019-04-25T11:32:27.204Z,45.62
2019-04-25T11:32:57.922Z,46.86
2019-04-25T11:33:27.206Z,46.22
2019-04-25T11:33:57.156Z,47.05
2019-04-25T11:34:27.250Z,46.32
2019-04-25T11:34:58.142Z,48.25
2019-04-25T11:35:27.201Z,48.25
2019-04-25T11:35:57.157Z,48.72
2019-04-25T11:36:27.196Z,47.03
2019-04-25T11:36:58.143Z,46.07
2019-04-25T11:37:27.204Z,45.81
2019-04-25T11:37:57.148Z,46.17
2019-04-25T11:38:27.198Z,46.59
2019-04-25T11:38:57.167Z,46.16
2019-04-25T11:39:27.207Z,45.73
2019-04-25T11:39:58.646Z,43.92
2019-04-25T11:40:27.203Z,44.17
2019-04-25T11:41:00.190Z,44.83
2019-04-25T11:41:27.240Z,44.45
2019-04-25T11:41:57.142Z,43.65
2019-04-25T11:42:27.208Z,41.89
2019-04-25T11:42:57.142Z,43.02
2019-04-25T11:43:27.212Z,43.03
2019-04-25T11:43:57.146Z,43.91
2019-04-25T11:44:27.202Z,43.56
2019-04-25T11:44:57.137Z,41.69
2019-04-25T11:45:27.202Z,43.63
2019-04-25T11:45:58.140Z,44.14
2019-04-25T11:46:27.199Z,41.21
2019-04-25T11:46:57.146Z,40.73
2019-04-25T11:47:27.202Z,39.59
2019-04-25T11:47:57.151Z,38.50
2019-04-25T11:48:27.202Z,38.37
2019-04-25T11:48:57.137Z,38.09
2019-04-25T11:49:27.204Z,38.93
2019-04-25T11:49:57.187Z,37.63
2019-04-25T11:50:28.213Z,36.15
2019-04-25T11:50:57.137Z,36.92
2019-04-25T11:51:30.115Z,37.23
2019-04-25T11:51:57.153Z,37.10
2019-04-25T11:52:30.193Z,37.49
2019-04-25T11:52:57.134Z,35.41
2019-04-25T11:53:27.216Z,36.65
2019-04-25T11:53:57.143Z,36.52
2019-04-25T11:54:27.213Z,35.91
2019-04-25T11:54:57.147Z,36.42
2019-04-25T11:55:27.221Z,36.52
2019-04-25T11:55:57.145Z,36.24
2019-04-25T11:56:27.207Z,35.02
2019-04-25T11:56:57.148Z,34.37
2019-04-25T11:57:27.215Z,33.91
2019-04-25T11:57:57.143Z,33.97
2019-04-25T11:58:27.219Z,34.46
2019-04-25T11:58:57.153Z,34.88
2019-04-25T11:59:27.213Z,35.41
2019-04-25T11:59:57.149Z,35.35
2019-04-25T12:00:27.215Z,36.00
2019-04-25T12:00:59.159Z,34.65
2019-04-25T12:01:27.213Z,34.16
2019-04-25T12:02:00.125Z,35.02
2019-04-25T12:02:27.209Z,35.13
2019-04-25T12:02:57.150Z,34.14
2019-04-25T12:03:27.214Z,34.61
2019-04-25T12:03:57.150Z,35.98
2019-04-25T12:04:27.216Z,38.47
2019-04-25T12:04:57.217Z,38.82
2019-04-25T12:05:27.221Z,36.79
2019-04-25T12:05:57.148Z,38.73
2019-04-25T12:06:27.211Z,37.98
2019-04-25T12:06:57.140Z,38.23
2019-04-25T12:07:27.199Z,36.20
2019-04-25T12:07:57.151Z,37.58
2019-04-25T12:08:27.210Z,36.62
2019-04-25T12:08:57.202Z,36.75
2019-04-25T12:09:27.215Z,36.23
2019-04-25T12:09:57.227Z,37.35
2019-04-25T12:10:28.243Z,36.07
2019-04-25T12:10:57.164Z,36.37
2019-04-25T12:11:28.431Z,36.85
2019-04-25T12:11:57.190Z,37.60
2019-04-25T12:12:30.144Z,35.68
2019-04-25T12:12:58.167Z,35.57
2019-04-25T12:13:28.473Z,35.40
2019-04-25T12:13:57.153Z,36.90
2019-04-25T12:14:27.214Z,36.82
2019-04-25T12:14:57.151Z,35.96
2019-04-25T12:15:27.205Z,36.13
2019-04-25T12:15:57.150Z,35.70
2019-04-25T12:16:27.211Z,34.32
2019-04-25T12:16:57.161Z,35.53
2019-04-25T12:17:27.219Z,37.30
2019-04-25T12:17:58.146Z,34.87
2019-04-25T12:18:27.210Z,35.25
2019-04-25T12:18:57.174Z,36.02
2019-04-25T12:19:35.565Z,36.68
2019-04-25T12:19:58.151Z,35.47
2019-04-25T12:20:27.215Z,38.25
2019-04-25T12:20:59.195Z,36.47
2019-04-25T12:21:27.211Z,36.58
2019-04-25T12:21:59.223Z,36.46
2019-04-25T12:22:27.222Z,36.60
2019-04-25T12:23:06.694Z,36.08
2019-04-25T12:23:27.213Z,39.63
2019-04-25T12:23:58.015Z,40.02
2019-04-25T12:24:27.223Z,40.85
2019-04-25T12:24:57.175Z,39.22
2019-04-25T12:25:27.219Z,40.09
2019-04-25T12:25:58.311Z,39.16
2019-04-25T12:26:27.217Z,38.91
2019-04-25T12:26:57.171Z,38.27
2019-04-25T12:27:28.261Z,37.84
2019-04-25T12:27:57.160Z,36.31
2019-04-25T12:28:27.221Z,38.51
2019-04-25T12:28:57.155Z,39.74
2019-04-25T12:29:27.215Z,38.67
2019-04-25T12:29:58.158Z,39.10
2019-04-25T12:30:37.850Z,40.21
2019-04-25T12:30:58.150Z,40.02
2019-04-25T12:31:27.232Z,39.55
2019-04-25T12:31:57.169Z,37.54
2019-04-25T12:32:28.226Z,39.07
2019-04-25T12:32:57.159Z,38.29
2019-04-25T12:33:30.110Z,36.63
2019-04-25T12:33:58.176Z,38.93
2019-04-25T12:34:28.479Z,38.41
2019-04-25T12:34:57.163Z,37.06
2019-04-25T12:35:27.230Z,38.86
2019-04-25T12:35:57.163Z,38.19
2019-04-25T12:36:27.224Z,40.53
2019-04-25T12:36:58.165Z,40.03
2019-04-25T12:37:27.218Z,42.99
2019-04-25T12:37:57.162Z,42.45
2019-04-25T12:38:27.227Z,40.72
2019-04-25T12:38:57.155Z,39.80
2019-04-25T12:39:27.217Z,39.04
2019-04-25T12:39:57.175Z,36.76
2019-04-25T12:40:27.269Z,36.76
2019-04-25T12:40:57.163Z,36.84
2019-04-25T12:41:27.230Z,36.76
2019-04-25T12:41:58.185Z,36.64
2019-04-25T12:42:27.217Z,35.11
2019-04-25T12:42:58.299Z,35.88
2019-04-25T12:43:27.246Z,34.66
2019-04-25T12:44:00.115Z,36.34
2019-04-25T12:44:27.224Z,34.90
2019-04-25T12:44:58.111Z,35.98
2019-04-25T12:45:27.229Z,37.01
2019-04-25T12:45:57.159Z,34.66
2019-04-25T12:46:27.231Z,35.49
2019-04-25T12:46:57.182Z,35.23
2019-04-25T12:47:27.221Z,36.50
2019-04-25T12:47:59.406Z,38.81
2019-04-25T12:48:27.229Z,38.84
2019-04-25T12:48:58.165Z,38.30
2019-04-25T12:49:27.223Z,39.64
2019-04-25T12:49:58.163Z,40.33
2019-04-25T12:50:27.224Z,38.57
2019-04-25T12:50:57.160Z,39.61
2019-04-25T12:51:27.242Z,37.60
2019-04-25T12:51:57.169Z,38.66
2019-04-25T12:52:27.228Z,39.27
2019-04-25T12:52:58.037Z,37.75
2019-04-25T12:53:28.223Z,38.84
2019-04-25T12:53:57.864Z,38.63
2019-04-25T12:54:30.149Z,38.60
2019-04-25T12:54:59.172Z,39.17
2019-04-25T12:55:28.502Z,38.16
2019-04-25T12:55:57.179Z,40.31
2019-04-25T12:56:27.235Z,39.88
2019-04-25T12:56:58.174Z,39.76
2019-04-25T12:57:27.233Z,41.63
2019-04-25T12:57:58.133Z,40.26
2019-04-25T12:58:27.221Z,41.57
2019-04-25T12:58:57.158Z,39.79
2019-04-25T12:59:27.231Z,40.62
2019-04-25T12:59:58.161Z,40.63
2019-04-25T13:00:27.244Z,42.30
2019-04-25T13:01:00.040Z,40.49
2019-04-25T13:01:27.227Z,41.78
2019-04-25T13:01:58.169Z,41.87
2019-04-25T13:02:27.225Z,39.87
2019-04-25T13:02:57.160Z,40.68
2019-04-25T13:03:27.235Z,38.33
2019-04-25T13:03:58.834Z,37.42
2019-04-25T13:04:27.235Z,38.79
2019-04-25T13:05:00.125Z,37.13
2019-04-25T13:05:27.221Z,38.81
2019-04-25T13:05:57.161Z,38.37
2019-04-25T13:06:27.217Z,38.86
2019-04-25T13:06:58.181Z,40.50
2019-04-25T13:07:27.285Z,40.51
2019-04-25T13:07:59.890Z,40.29
2019-04-25T13:08:27.226Z,40.06
2019-04-25T13:08:57.176Z,41.82
2019-04-25T13:09:27.230Z,42.14
2019-04-25T13:09:57.173Z,42.62
2019-04-25T13:10:27.229Z,42.26
2019-04-25T13:11:07.740Z,41.66
2019-04-25T13:11:27.236Z,42.58
2019-04-25T13:11:57.170Z,38.64
2019-04-25T13:12:27.229Z,39.12
2019-04-25T13:12:57.175Z,38.43
2019-04-25T13:13:27.238Z,42.62
2019-04-25T13:13:57.171Z,42.91
2019-04-25T13:14:28.615Z,43.51
2019-04-25T13:14:57.168Z,41.02
2019-04-25T13:15:30.137Z,43.01
2019-04-25T13:15:57.162Z,42.44
2019-04-25T13:16:27.231Z,40.51
2019-04-25T13:16:57.170Z,42.89
2019-04-25T13:17:28.491Z,42.67
2019-04-25T13:17:57.178Z,40.83
2019-04-25T13:18:27.237Z,39.77
2019-04-25T13:19:11.012Z,39.72
2019-04-25T13:19:27.230Z,38.25
2019-04-25T13:19:57.211Z,37.62
2019-04-25T13:20:27.237Z,37.00
2019-04-25T13:20:59.176Z,37.49
2019-04-25T13:21:27.232Z,38.91
2019-04-25T13:21:58.181Z,38.35
2019-04-25T13:22:27.243Z,38.09
2019-04-25T13:22:57.167Z,37.75
2019-04-25T13:23:27.237Z,38.74
2019-04-25T13:23:58.178Z,40.03
2019-04-25T13:24:27.242Z,40.12
2019-04-25T13:24:58.874Z,40.23
2019-04-25T13:25:27.239Z,39.73
2019-04-25T13:26:00.130Z,38.55
2019-04-25T13:26:27.230Z,38.32
2019-04-25T13:26:57.177Z,38.18
2019-04-25T13:27:27.236Z,37.17
2019-04-25T13:27:59.581Z,37.92
2019-04-25T13:28:27.238Z,36.58
2019-04-25T13:28:57.169Z,35.69
2019-04-25T13:29:27.226Z,35.85
2019-04-25T13:29:58.792Z,34.23
2019-04-25T13:30:27.267Z,33.18
2019-04-25T13:31:02.294Z,32.99
2019-04-25T13:31:27.240Z,32.39
2019-04-25T13:31:57.175Z,33.27
2019-04-25T13:32:27.232Z,33.32
2019-04-25T13:32:58.182Z,34.59
2019-04-25T13:33:27.228Z,35.18
2019-04-25T13:33:58.851Z,34.81
2019-04-25T13:34:36.225Z,35.95
2019-04-25T13:34:58.678Z,37.59
2019-04-25T13:35:28.258Z,37.71
2019-04-25T13:35:58.169Z,35.91
2019-04-25T13:36:30.170Z,35.51
2019-04-25T13:36:59.175Z,36.53
2019-04-25T13:37:27.223Z,36.60
2019-04-25T13:37:58.186Z,36.59
2019-04-25T13:38:27.379Z,35.19
2019-04-25T13:38:58.198Z,33.26
2019-04-25T13:39:27.243Z,32.25
2019-04-25T13:39:59.180Z,33.78
2019-04-25T13:40:27.247Z,33.71
2019-04-25T13:40:58.240Z,32.67
2019-04-25T13:41:28.239Z,35.30
2019-04-25T13:42:00.940Z,33.47
2019-04-25T13:42:27.238Z,36.07
2019-04-25T13:42:57.970Z,33.72
2019-04-25T13:43:27.249Z,33.68
2019-04-25T13:43:58.911Z,33.12
2019-04-25T13:44:27.244Z,32.15
2019-04-25T13:44:57.174Z,33.03
2019-04-25T13:45:27.240Z,33.00
2019-04-25T13:45:58.182Z,32.12
2019-04-25T13:46:28.252Z,32.04
2019-04-25T13:47:00.110Z,32.47
2019-04-25T13:47:29.636Z,30.65
2019-04-25T13:47:57.186Z,29.93
2019-04-25T13:48:29.179Z,29.17
2019-04-25T13:48:57.169Z,29.52
2019-04-25T13:49:29.139Z,30.57
2019-04-25T13:49:57.175Z,30.90
2019-04-25T13:50:28.232Z,31.11
2019-04-25T13:50:57.176Z,30.67
2019-04-25T13:51:28.080Z,30.51
2019-04-25T13:51:57.180Z,30.59
2019-04-25T13:52:27.232Z,30.67
2019-04-25T13:52:57.172Z,29.40
2019-04-25T13:53:28.243Z,29.21
2019-04-25T13:53:57.190Z,28.83
2019-04-25T13:54:27.249Z,29.09
2019-04-25T13:54:57.209Z,29.70
2019-04-25T13:55:27.243Z,30.10
2019-04-25T13:55:57.193Z,28.73
2019-04-25T13:56:28.699Z,28.65
2019-04-25T13:56:57.195Z,29.43
2019-04-25T13:57:30.174Z,30.44
2019-04-25T13:57:57.177Z,30.46
2019-04-25T13:58:30.561Z,29.49
2019-04-25T13:58:57.213Z,29.07
2019-04-25T13:59:28.248Z,29.37
2019-04-25T13:59:57.219Z,29.63
2019-04-25T14:00:28.309Z,27.83
2019-04-25T14:00:57.181Z,28.45
2019-04-25T14:01:28.242Z,29.20
2019-04-25T14:01:58.186Z,28.49
2019-04-25T14:02:27.241Z,29.66
2019-04-25T14:02:57.193Z,28.67
2019-04-25T14:03:28.257Z,29.23
2019-04-25T14:03:57.187Z,29.17
2019-04-25T14:04:28.250Z,29.59
2019-04-25T14:04:57.176Z,29.00
2019-04-25T14:05:28.193Z,29.27
2019-04-25T14:05:57.184Z,29.28
2019-04-25T14:06:28.091Z,29.06
2019-04-25T14:06:58.330Z,28.36
2019-04-25T14:07:28.249Z,27.98
2019-04-25T14:08:00.145Z,28.22
2019-04-25T14:08:27.244Z,28.73
2019-04-25T14:08:57.180Z,28.70
2019-04-25T14:09:29.142Z,28.75
2019-04-25T14:09:57.189Z,28.63
2019-04-25T14:10:28.263Z,28.53
2019-04-25T14:10:57.188Z,28.27
2019-04-25T14:11:28.234Z,27.28
2019-04-25T14:11:57.188Z,28.00
2019-04-25T14:12:30.036Z,28.64
2019-04-25T14:12:57.188Z,28.69
2019-04-25T14:13:28.249Z,27.59
2019-04-25T14:13:57.215Z,27.68
2019-04-25T14:14:27.298Z,28.02
2019-04-25T14:14:57.184Z,27.94
2019-04-25T14:15:28.260Z,28.00
2019-04-25T14:15:57.182Z,26.95
2019-04-25T14:16:28.083Z,27.69
2019-04-25T14:16:57.186Z,27.82
2019-04-25T14:17:28.260Z,30.92
2019-04-25T14:17:57.188Z,32.92
2019-04-25T14:18:30.114Z,33.63
2019-04-25T14:18:57.185Z,33.50
2019-04-25T14:19:27.261Z,31.76
2019-04-25T14:19:57.201Z,31.96
2019-04-25T14:20:28.859Z,31.37
2019-04-25T14:20:57.187Z,31.15
2019-04-25T14:21:29.153Z,30.35
2019-04-25T14:21:57.185Z,30.09
2019-04-25T14:22:28.296Z,30.53
2019-04-25T14:22:57.183Z,34.29
2019-04-25T14:23:28.244Z,33.93
2019-04-25T14:23:57.182Z,35.11
2019-04-25T14:24:30.664Z,33.93
2019-04-25T14:24:57.196Z,33.63
2019-04-25T14:25:28.508Z,31.77
2019-04-25T14:25:57.191Z,32.40
2019-04-25T14:26:27.242Z,32.12
2019-04-25T14:26:57.195Z,33.95
2019-04-25T14:27:28.243Z,33.57
2019-04-25T14:27:59.203Z,32.98
2019-04-25T14:28:31.395Z,33.99
2019-04-25T14:29:00.182Z,33.20
2019-04-25T14:29:28.059Z,30.58
2019-04-25T14:29:57.190Z,30.24
2019-04-25T14:30:27.282Z,29.98
2019-04-25T14:30:57.187Z,29.23
2019-04-25T14:31:36.456Z,28.80
2019-04-25T14:31:57.189Z,28.99
2019-04-25T14:32:30.123Z,28.93